createdAt,value
2019-03-04T00:02:00.230Z,85.10
2019-03-04T00:04:29.689Z,85.00
2019-03-04T00:06:59.106Z,84.90
2019-03-04T00:09:28.565Z,84.80
2019-03-04T00:11:58.023Z,84.70
2019-03-04T00:14:27.495Z,85.20
2019-03-04T00:16:56.982Z,85.60
2019-03-04T00:19:26.584Z,85.50
2019-03-04T00:21:56.004Z,85.30
2019-03-04T00:24:25.443Z,85.50
2019-03-04T00:26:54.938Z,85.30
2019-03-04T00:29:24.388Z,85.70
2019-03-04T00:31:53.826Z,85.10
2019-03-04T00:34:23.515Z,85.90
2019-03-04T00:36:53.006Z,86.20
2019-03-04T00:39:22.443Z,86.20
2019-03-04T00:41:51.894Z,86.40
2019-03-04T00:44:21.315Z,86.70
2019-03-04T00:46:50.794Z,86.80
2019-03-04T00:49:20.215Z,87.70
2019-03-04T00:51:49.739Z,87.90
2019-03-04T00:54:19.188Z,87.20
2019-03-04T00:56:48.624Z,87.60
2019-03-04T00:59:18.064Z,87.70
2019-03-04T01:01:47.521Z,87.70
2019-03-04T01:04:16.938Z,87.60
2019-03-04T01:06:46.478Z,87.70
2019-03-04T01:09:16.722Z,87.80
2019-03-04T01:11:46.198Z,87.50
2019-03-04T01:14:15.628Z,87.40
2019-03-04T01:16:45.349Z,87.90
2019-03-04T01:19:14.750Z,88.40
2019-03-04T01:21:44.225Z,88.40
2019-03-04T01:24:13.768Z,88.30
2019-03-04T01:26:43.218Z,88.30
2019-03-04T01:29:12.653Z,88.30
2019-03-04T01:31:43.608Z,88.50
2019-03-04T01:34:13.146Z,88.70
2019-03-04T01:36:42.622Z,88.80
2019-03-04T01:39:13.248Z,89.40
2019-03-04T01:41:42.709Z,89.40
2019-03-04T01:44:12.147Z,89.70
2019-03-04T01:46:41.640Z,90.00
2019-03-04T01:49:11.055Z,90.00
2019-03-04T01:51:40.510Z,90.10
2019-03-04T01:54:09.980Z,90.10
2019-03-04T01:56:39.448Z,90.30
2019-03-04T01:59:08.868Z,90.30
2019-03-04T02:01:38.386Z,90.40
2019-03-04T02:04:07.814Z,90.50
2019-03-04T02:06:37.296Z,90.60
2019-03-04T02:09:07.629Z,90.60
2019-03-04T02:11:38.219Z,90.60
2019-03-04T02:14:07.681Z,89.00
2019-03-04T02:16:37.157Z,90.80
2019-03-04T02:19:06.606Z,90.60
2019-03-04T02:21:36.070Z,90.40
2019-03-04T02:24:26.127Z,90.20
2019-03-04T02:26:57.522Z,90.10
2019-03-04T02:29:26.936Z,90.30
2019-03-04T02:31:56.429Z,90.50
2019-03-04T02:34:25.887Z,90.40
2019-03-04T02:36:55.371Z,90.70
2019-03-04T02:39:24.828Z,88.80
2019-03-04T02:41:54.291Z,90.80
2019-03-04T02:44:23.713Z,90.50
2019-03-04T02:46:53.292Z,90.30
2019-03-04T02:49:22.700Z,90.30
2019-03-04T02:51:52.143Z,90.30
2019-03-04T02:54:21.607Z,90.20
2019-03-04T02:56:51.098Z,90.20
2019-03-04T02:59:20.520Z,90.20
2019-03-04T03:01:50.007Z,90.20
2019-03-04T03:04:19.424Z,90.30
2019-03-04T03:06:48.892Z,90.10
2019-03-04T03:09:18.353Z,90.20
2019-03-04T03:11:47.940Z,90.20
2019-03-04T03:14:17.365Z,88.80
2019-03-04T03:16:46.816Z,90.00
2019-03-04T03:19:16.243Z,89.20
2019-03-04T03:21:45.696Z,89.60
2019-03-04T03:24:15.206Z,90.00
2019-03-04T03:26:44.688Z,90.00
2019-03-04T03:29:14.128Z,89.50
2019-03-04T03:31:43.578Z,89.40
2019-03-04T03:34:12.994Z,89.80
2019-03-04T03:36:42.442Z,89.60
2019-03-04T03:39:12.071Z,89.10
2019-03-04T03:41:41.524Z,88.30
2019-03-04T03:44:11.019Z,88.50
2019-03-04T03:46:40.470Z,88.00
2019-03-04T03:49:09.886Z,88.20
2019-03-04T03:51:39.298Z,87.90
2019-03-04T03:54:08.753Z,87.60
2019-03-04T03:56:38.178Z,87.50
2019-03-04T03:59:07.636Z,88.00
2019-03-04T04:01:37.058Z,87.70
2019-03-04T04:04:06.509Z,88.30
2019-03-04T04:06:35.955Z,85.30
2019-03-04T04:09:06.510Z,88.70
2019-03-04T04:11:37.448Z,88.10
2019-03-04T04:14:06.910Z,87.80
2019-03-04T04:16:36.344Z,87.90
2019-03-04T04:19:05.796Z,88.20
2019-03-04T04:21:35.229Z,85.80
2019-03-04T04:24:04.920Z,89.90
2019-03-04T04:26:34.343Z,88.90
2019-03-04T04:29:13.110Z,88.10
2019-03-04T04:31:43.244Z,88.00
2019-03-04T04:34:12.715Z,89.10
2019-03-04T04:36:42.239Z,88.00
2019-03-04T04:39:11.677Z,89.20
2019-03-04T04:41:42.802Z,89.40
2019-03-04T04:44:12.217Z,89.30
2019-03-04T04:47:08.381Z,89.40
2019-03-04T04:49:37.862Z,89.40
2019-03-04T04:52:07.280Z,89.40
2019-03-04T04:54:36.736Z,89.50
2019-03-04T04:57:06.206Z,89.60
2019-03-04T04:59:35.714Z,89.30
2019-03-04T05:02:05.164Z,89.20
2019-03-04T05:04:34.594Z,89.40
2019-03-04T05:07:04.014Z,89.30
2019-03-04T05:09:33.468Z,89.40
2019-03-04T05:12:02.909Z,89.20
2019-03-04T05:14:32.363Z,89.10
2019-03-04T05:17:01.774Z,89.20
2019-03-04T05:19:31.218Z,89.40
2019-03-04T05:22:00.631Z,89.20
2019-03-04T05:24:30.078Z,89.80
2019-03-04T05:26:59.588Z,88.90
2019-03-04T05:29:29.020Z,86.00
2019-03-04T05:31:58.543Z,88.90
2019-03-04T05:34:27.993Z,88.60
2019-03-04T05:36:57.417Z,87.70
2019-03-04T05:39:26.857Z,80.40
2019-03-04T05:41:56.266Z,84.50
2019-03-04T05:44:25.712Z,88.10
2019-03-04T05:46:55.187Z,87.40
2019-03-04T05:49:24.626Z,76.70
2019-03-04T05:51:54.080Z,86.00
2019-03-04T05:54:23.544Z,81.40
2019-03-04T05:56:52.961Z,88.80
2019-03-04T05:59:22.418Z,79.70
2019-03-04T06:02:09.158Z,88.00
2019-03-04T06:04:39.669Z,87.00
2019-03-04T06:07:18.806Z,86.70
2019-03-04T06:09:48.305Z,87.30
2019-03-04T06:12:18.153Z,86.70
2019-03-04T06:14:47.977Z,87.20
2019-03-04T06:17:17.423Z,84.40
2019-03-04T06:19:46.888Z,87.10
2019-03-04T06:22:16.302Z,86.70
2019-03-04T06:24:45.742Z,85.50
2019-03-04T06:27:15.207Z,85.30
2019-03-04T06:29:44.790Z,84.50
2019-03-04T06:32:14.262Z,85.60
2019-03-04T06:34:43.880Z,83.70
2019-03-04T06:37:13.491Z,73.50
2019-03-04T06:39:43.101Z,78.00
2019-03-04T06:42:12.706Z,86.10
2019-03-04T06:44:43.756Z,84.50
2019-03-04T06:47:13.294Z,79.40
2019-03-04T06:49:42.757Z,85.10
2019-03-04T06:52:12.234Z,77.90
2019-03-04T06:54:57.450Z,84.40
2019-03-04T06:57:39.809Z,82.80
2019-03-04T07:00:58.044Z,77.80
2019-03-04T07:04:11.848Z,82.30
2019-03-04T07:06:41.522Z,83.20
2019-03-04T07:09:14.214Z,73.70
2019-03-04T07:11:51.027Z,80.70
2019-03-04T07:14:20.517Z,80.30
2019-03-04T07:16:51.673Z,81.50
2019-03-04T07:19:46.155Z,82.30
2019-03-04T07:22:15.637Z,73.60
2019-03-04T07:24:45.066Z,76.50
2019-03-04T07:27:14.670Z,81.00
2019-03-04T07:29:44.151Z,71.90
2019-03-04T07:32:13.633Z,70.50
2019-03-04T07:34:43.184Z,67.40
2019-03-04T07:37:12.645Z,78.70
2019-03-04T07:39:42.076Z,77.90
2019-03-04T07:42:11.687Z,71.50
2019-03-04T07:44:41.105Z,74.10
2019-03-04T07:47:11.221Z,77.00
2019-03-04T07:49:40.632Z,72.70
2019-03-04T07:52:10.188Z,72.00
2019-03-04T07:54:39.628Z,74.10
2019-03-04T07:57:09.220Z,76.10
2019-03-04T07:59:38.701Z,76.40
2019-03-04T08:02:08.275Z,73.70
2019-03-04T08:04:37.822Z,66.70
2019-03-04T08:07:38.688Z,74.80
2019-03-04T08:11:13.405Z,75.00
2019-03-04T08:13:50.370Z,76.50
2019-03-04T08:16:19.791Z,76.50
2019-03-04T08:18:49.246Z,70.90
2019-03-04T08:21:18.699Z,68.80
2019-03-04T08:23:48.170Z,72.30
2019-03-04T08:26:17.584Z,63.30
2019-03-04T08:28:47.054Z,70.10
2019-03-04T08:31:16.688Z,68.30
2019-03-04T08:33:46.104Z,73.50
2019-03-04T08:36:15.539Z,73.70
2019-03-04T08:38:45.014Z,70.60
2019-03-04T08:41:14.469Z,64.20
2019-03-04T08:43:43.938Z,65.50
2019-03-04T08:46:13.378Z,62.90
2019-03-04T08:48:42.843Z,59.30
2019-03-04T08:51:12.252Z,64.80
2019-03-04T08:53:41.730Z,57.00
2019-03-04T08:56:12.408Z,56.50
2019-03-04T08:58:42.208Z,52.10
2019-03-04T09:01:11.762Z,54.10
2019-03-04T09:03:41.430Z,54.00
2019-03-04T09:06:10.943Z,51.50
2019-03-04T09:08:40.639Z,52.00
2019-03-04T09:11:10.294Z,56.50
2019-03-04T09:13:39.752Z,56.20
2019-03-04T09:16:09.170Z,54.70
2019-03-04T09:18:38.752Z,55.50
2019-03-04T09:21:08.206Z,57.90
2019-03-04T09:23:37.679Z,54.50
2019-03-04T09:26:11.435Z,55.10
2019-03-04T09:28:41.364Z,54.60
2019-03-04T09:31:10.924Z,56.20
2019-03-04T09:33:40.381Z,54.70
2019-03-04T09:36:09.850Z,56.30
2019-03-04T09:38:39.302Z,56.70
2019-03-04T09:41:08.817Z,56.60
2019-03-04T09:43:38.287Z,55.20
2019-03-04T09:46:07.705Z,57.30
2019-03-04T09:48:37.161Z,58.40
2019-03-04T09:51:06.618Z,62.30
2019-03-04T09:53:39.532Z,56.70
2019-03-04T09:56:07.168Z,56.40
2019-03-04T09:58:36.617Z,58.50
2019-03-04T10:01:22.704Z,57.70
2019-03-04T10:04:29.275Z,59.30
2019-03-04T10:07:42.842Z,59.70
2019-03-04T10:10:55.000Z,60.80
2019-03-04T10:13:57.041Z,59.80
2019-03-04T10:17:10.568Z,58.60
2019-03-04T10:20:19.704Z,58.80
2019-03-04T10:23:13.636Z,60.20
2019-03-04T10:25:59.391Z,62.90
2019-03-04T10:29:07.103Z,64.40
2019-03-04T10:31:49.300Z,64.60
2019-03-04T10:34:59.675Z,63.20
2019-03-04T10:38:05.280Z,62.10
2019-03-04T10:41:15.301Z,61.70
2019-03-04T10:44:28.816Z,61.60
2019-03-04T10:46:59.772Z,62.20
2019-03-04T10:49:33.474Z,61.90
2019-03-04T10:52:02.951Z,62.00
2019-03-04T10:54:32.394Z,64.00
2019-03-04T10:57:01.812Z,64.80
2019-03-04T10:59:31.276Z,64.70
2019-03-04T11:02:00.727Z,64.50
2019-03-04T11:04:30.178Z,65.20
2019-03-04T11:06:59.622Z,66.80
2019-03-04T11:09:29.083Z,68.50
2019-03-04T11:11:58.583Z,70.70
2019-03-04T11:14:28.029Z,72.60
2019-03-04T11:16:57.454Z,73.10
2019-03-04T11:19:27.160Z,73.90
2019-03-04T11:22:16.791Z,74.40
2019-03-04T11:24:59.295Z,74.90
2019-03-04T11:27:28.742Z,74.90
2019-03-04T11:29:58.186Z,75.40
2019-03-04T11:32:27.605Z,76.30
2019-03-04T11:34:57.057Z,76.70
2019-03-04T11:37:26.477Z,78.30
2019-03-04T11:40:04.183Z,78.60
2019-03-04T11:42:33.733Z,79.40
2019-03-04T11:45:03.428Z,80.10
2019-03-04T11:47:32.846Z,80.30
2019-03-04T11:50:02.294Z,82.00
2019-03-04T11:52:31.767Z,82.30
2019-03-04T11:55:01.281Z,82.80
2019-03-04T11:57:30.789Z,82.40
2019-03-04T12:00:00.224Z,83.10
2019-03-04T12:02:38.561Z,82.40
2019-03-04T12:05:03.099Z,83.90
2019-03-04T12:07:32.558Z,81.80
2019-03-04T12:10:02.126Z,82.90
2019-03-04T12:12:31.579Z,82.80
2019-03-04T12:15:01.006Z,83.20
2019-03-04T12:17:30.457Z,81.30
2019-03-04T12:20:00.777Z,81.20
2019-03-04T12:22:30.227Z,80.50
2019-03-04T12:24:59.651Z,77.90
2019-03-04T12:27:29.129Z,78.60
2019-03-04T12:29:58.624Z,78.50
2019-03-04T12:32:35.098Z,79.00
2019-03-04T12:35:06.968Z,77.60
2019-03-04T12:37:36.410Z,79.30
2019-03-04T12:40:08.227Z,78.10
2019-03-04T12:42:37.663Z,77.70
2019-03-04T12:45:08.790Z,78.80
2019-03-04T12:47:38.227Z,78.00
2019-03-04T12:50:10.653Z,78.70
2019-03-04T12:52:40.188Z,78.80
2019-03-04T12:55:10.296Z,78.70
2019-03-04T12:57:39.848Z,79.40
2019-03-04T13:00:12.650Z,78.70
2019-03-04T13:02:42.149Z,78.10
2019-03-04T13:05:11.927Z,77.60
2019-03-04T13:07:41.498Z,79.20
2019-03-04T13:10:11.750Z,78.80
2019-03-04T13:12:41.523Z,78.90
2019-03-04T13:15:19.050Z,79.00
2019-03-04T13:17:49.538Z,79.30
2019-03-04T13:20:19.186Z,79.30
2019-03-04T13:22:48.634Z,80.10
2019-03-04T13:25:18.047Z,79.20
2019-03-04T13:27:47.500Z,79.90
2019-03-04T13:30:19.113Z,80.70
2019-03-04T13:32:48.561Z,80.30
2019-03-04T13:35:24.539Z,80.10
2019-03-04T13:37:51.199Z,79.80
2019-03-04T13:40:20.613Z,80.30
2019-03-04T13:42:50.065Z,79.00
2019-03-04T13:45:19.628Z,80.20
2019-03-04T13:47:49.075Z,79.00
2019-03-04T13:50:20.683Z,81.30
2019-03-04T13:52:50.137Z,78.80
2019-03-04T13:55:20.015Z,80.50
2019-03-04T13:57:49.553Z,75.70
2019-03-04T14:00:20.392Z,72.50
2019-03-04T14:02:49.884Z,73.10
2019-03-04T14:05:20.291Z,71.50
2019-03-04T14:07:49.742Z,69.60
2019-03-04T14:10:20.246Z,71.20
2019-03-04T14:12:49.689Z,70.40
2019-03-04T14:15:25.071Z,66.80
2019-03-04T14:17:54.813Z,67.30
2019-03-04T14:20:24.255Z,67.00
2019-03-04T14:22:57.735Z,65.40
2019-03-04T14:25:25.045Z,66.10
2019-03-04T14:27:54.646Z,66.50
2019-03-04T14:30:24.143Z,65.60
2019-03-04T14:32:53.606Z,64.80
2019-03-04T14:35:23.150Z,66.00
2019-03-04T14:37:52.569Z,67.20
2019-03-04T14:40:23.530Z,67.00
2019-03-04T14:42:55.020Z,65.00
2019-03-04T14:45:24.383Z,64.80
2019-03-04T14:47:53.810Z,66.30
2019-03-04T14:50:23.272Z,65.40
2019-03-04T14:52:52.827Z,66.60
2019-03-04T14:55:22.298Z,67.00
2019-03-04T14:57:51.817Z,69.20
2019-03-04T15:00:27.245Z,66.80
2019-03-04T15:02:56.753Z,67.80
2019-03-04T15:05:26.888Z,66.80
2019-03-04T15:07:56.323Z,67.90
2019-03-04T15:10:25.874Z,66.60
2019-03-04T15:12:55.433Z,68.30
2019-03-04T15:15:25.036Z,67.30
2019-03-04T15:17:54.453Z,67.30
2019-03-04T15:20:24.561Z,67.20
2019-03-04T15:22:53.974Z,69.20
2019-03-04T15:25:26.989Z,68.70
2019-03-04T15:28:26.627Z,68.20
2019-03-04T15:30:57.586Z,69.20
2019-03-04T15:33:27.102Z,70.80
2019-03-04T15:35:56.555Z,72.10
2019-03-04T15:38:25.981Z,71.50
2019-03-04T15:40:55.581Z,69.80
2019-03-04T15:43:24.999Z,69.40
2019-03-04T15:45:55.128Z,68.00
2019-03-04T15:48:28.280Z,65.00
2019-03-04T15:50:57.162Z,68.30
2019-03-04T15:53:26.631Z,64.10
2019-03-04T15:55:56.285Z,67.50
2019-03-04T15:58:25.786Z,65.60
2019-03-04T16:00:55.368Z,68.20
2019-03-04T16:03:24.717Z,67.50
2019-03-04T16:05:54.182Z,67.70
2019-03-04T16:08:23.682Z,63.80
2019-03-04T16:10:53.243Z,64.20
2019-03-04T16:13:22.661Z,65.90
2019-03-04T16:15:52.106Z,64.60
2019-03-04T16:18:21.530Z,66.10
2019-03-04T16:20:51.088Z,66.10
2019-03-04T16:23:20.565Z,66.70
2019-03-04T16:25:50.001Z,61.10
2019-03-04T16:28:22.113Z,65.30
2019-03-04T16:30:52.018Z,64.30
2019-03-04T16:33:21.777Z,64.70
2019-03-04T16:35:51.304Z,64.60
2019-03-04T16:38:21.014Z,63.90
2019-03-04T16:40:51.216Z,60.30
2019-03-04T16:43:20.628Z,63.50
2019-03-04T16:45:50.086Z,60.40
2019-03-04T16:48:19.536Z,60.70
2019-03-04T16:50:49.126Z,62.00
2019-03-04T16:53:19.368Z,63.10
2019-03-04T16:55:48.881Z,62.50
2019-03-04T16:58:18.321Z,63.10
2019-03-04T17:00:48.580Z,62.80
2019-03-04T17:03:19.137Z,63.20
2019-03-04T17:05:48.717Z,64.00
2019-03-04T17:08:19.600Z,63.70
2019-03-04T17:10:49.294Z,62.30
2019-03-04T17:13:18.760Z,61.50
2019-03-04T17:15:48.314Z,62.10
2019-03-04T17:18:17.891Z,62.00
2019-03-04T17:20:47.793Z,61.90
2019-03-04T17:23:17.363Z,63.00
2019-03-04T17:25:46.877Z,61.30
2019-03-04T17:28:16.320Z,59.80
2019-03-04T17:30:45.879Z,61.40
2019-03-04T17:33:15.502Z,60.00
2019-03-04T17:35:44.999Z,61.10
2019-03-04T17:38:14.413Z,59.10
2019-03-04T17:40:43.941Z,59.40
2019-03-04T17:43:13.605Z,58.10
2019-03-04T17:45:43.193Z,58.80
2019-03-04T17:48:12.614Z,60.10
2019-03-04T17:50:42.596Z,58.40
2019-03-04T17:53:12.250Z,60.10
2019-03-04T17:55:42.057Z,58.90
2019-03-04T17:58:11.581Z,57.30
2019-03-04T18:00:42.580Z,56.70
2019-03-04T18:03:12.130Z,56.70
2019-03-04T18:05:41.633Z,57.60
2019-03-04T18:08:11.260Z,57.40
2019-03-04T18:10:40.722Z,56.60
2019-03-04T18:13:11.421Z,56.80
2019-03-04T18:15:40.987Z,57.20
2019-03-04T18:18:10.573Z,56.50
2019-03-04T18:20:40.386Z,57.50
2019-03-04T18:23:09.838Z,56.30
2019-03-04T18:25:44.671Z,57.10
2019-03-04T18:28:21.243Z,57.00
2019-03-04T18:31:30.990Z,56.00
2019-03-04T18:34:33.999Z,58.30
2019-03-04T18:37:34.736Z,58.70
2019-03-04T18:40:28.986Z,58.90
2019-03-04T18:43:34.207Z,59.60
2019-03-04T18:46:41.601Z,59.50
2019-03-04T18:49:11.111Z,61.50
2019-03-04T18:51:40.564Z,62.50
2019-03-04T18:54:18.629Z,62.60
2019-03-04T18:56:48.524Z,63.20
2019-03-04T18:59:17.993Z,63.30
2019-03-04T19:01:47.459Z,63.90
2019-03-04T19:04:16.959Z,65.40
2019-03-04T19:06:46.483Z,65.40
2019-03-04T19:09:15.969Z,65.80
2019-03-04T19:11:45.427Z,68.10
2019-03-04T19:14:14.926Z,70.70
2019-03-04T19:16:44.332Z,76.80
2019-03-04T19:19:13.781Z,75.70
2019-03-04T19:21:43.223Z,76.30
2019-03-04T19:24:12.671Z,80.70
2019-03-04T19:26:42.084Z,81.30
2019-03-04T19:29:11.534Z,82.00
2019-03-04T19:31:40.950Z,81.30
2019-03-04T19:34:10.402Z,83.70
2019-03-04T19:36:40.046Z,84.70
2019-03-04T19:39:09.866Z,85.40
2019-03-04T19:41:39.346Z,86.60
2019-03-04T19:44:08.824Z,87.80
2019-03-04T19:46:38.398Z,87.00
2019-03-04T19:49:07.867Z,86.90
2019-03-04T19:51:37.322Z,87.40
2019-03-04T19:54:06.750Z,89.60
2019-03-04T19:56:36.219Z,88.80
2019-03-04T19:59:05.685Z,89.40
2019-03-04T20:01:35.118Z,89.80
2019-03-04T20:04:04.630Z,89.20
2019-03-04T20:06:34.122Z,90.00
2019-03-04T20:09:05.345Z,90.20
2019-03-04T20:11:35.743Z,89.90
2019-03-04T20:14:05.871Z,90.20
2019-03-04T20:16:35.449Z,90.50
2019-03-04T20:19:04.913Z,91.00
2019-03-04T20:21:34.354Z,91.00
2019-03-04T20:24:03.830Z,90.70
2019-03-04T20:26:33.359Z,90.20
2019-03-04T20:29:02.812Z,90.40
2019-03-04T20:31:32.280Z,91.40
2019-03-04T20:34:01.732Z,91.20
2019-03-04T20:36:31.155Z,92.00
2019-03-04T20:39:00.598Z,91.40
2019-03-04T20:41:30.314Z,93.50
2019-03-04T20:43:59.730Z,93.10
2019-03-04T20:46:29.219Z,93.80
2019-03-04T20:48:58.634Z,93.10
2019-03-04T20:51:28.089Z,92.60
2019-03-04T20:53:57.570Z,92.80
2019-03-04T20:56:27.025Z,92.90
2019-03-04T20:58:56.482Z,94.30
2019-03-04T21:01:26.221Z,93.60
2019-03-04T21:03:55.640Z,94.50
2019-03-04T21:06:25.089Z,94.60
2019-03-04T21:08:54.736Z,94.70
2019-03-04T21:11:24.228Z,94.50
2019-03-04T21:13:53.646Z,95.10
2019-03-04T21:16:23.874Z,94.90
2019-03-04T21:18:53.483Z,94.60
2019-03-04T21:21:22.984Z,95.10
2019-03-04T21:23:52.392Z,94.80
2019-03-04T21:26:27.420Z,95.20
2019-03-04T21:29:29.922Z,96.20
2019-03-04T21:32:28.972Z,95.80
2019-03-04T21:35:38.608Z,95.90
2019-03-04T21:38:08.216Z,96.10
2019-03-04T21:41:01.522Z,95.70
2019-03-04T21:43:38.731Z,95.90
2019-03-04T21:47:01.100Z,96.30
2019-03-04T21:49:33.425Z,97.20
2019-03-04T21:52:33.538Z,96.60
2019-03-04T21:55:05.065Z,96.90
2019-03-04T21:57:44.516Z,96.30
2019-03-04T22:00:18.030Z,95.90
2019-03-04T22:03:26.811Z,96.20
2019-03-04T22:05:56.897Z,95.70
2019-03-04T22:08:26.289Z,96.50
2019-03-04T22:10:55.765Z,96.30
2019-03-04T22:13:25.217Z,95.70
2019-03-04T22:15:54.671Z,96.00
2019-03-04T22:18:24.191Z,96.40
2019-03-04T22:20:53.611Z,96.10
2019-03-04T22:23:23.100Z,96.50
2019-03-04T22:26:01.590Z,96.80
2019-03-04T22:28:23.614Z,96.40
2019-03-04T22:30:53.046Z,96.60
2019-03-04T22:33:22.528Z,96.90
2019-03-04T22:35:51.951Z,97.00
2019-03-04T22:38:21.400Z,96.90
2019-03-04T22:40:50.825Z,96.20
2019-03-04T22:43:20.258Z,96.70
2019-03-04T22:45:49.752Z,96.40
2019-03-04T22:48:19.216Z,96.40
2019-03-04T22:50:48.665Z,96.80
2019-03-04T22:53:18.109Z,97.00
2019-03-04T22:55:47.582Z,96.20
2019-03-04T22:58:27.739Z,96.40
2019-03-04T23:01:37.109Z,96.40
2019-03-04T23:04:27.665Z,96.20
2019-03-04T23:07:00.504Z,95.60
2019-03-04T23:09:31.605Z,96.20
2019-03-04T23:12:22.593Z,96.00
2019-03-04T23:14:52.209Z,94.90
2019-03-04T23:17:21.655Z,96.30
2019-03-04T23:19:51.067Z,95.20
2019-03-04T23:22:20.507Z,96.50
2019-03-04T23:24:49.926Z,95.80
2019-03-04T23:27:19.374Z,95.50
2019-03-04T23:29:48.911Z,95.30
2019-03-04T23:32:18.353Z,95.60
2019-03-04T23:34:47.789Z,94.90
2019-03-04T23:37:17.343Z,95.20
2019-03-04T23:39:46.828Z,94.70
2019-03-04T23:42:16.510Z,95.40
2019-03-04T23:44:45.949Z,94.00
2019-03-04T23:47:15.459Z,93.80
2019-03-04T23:49:44.906Z,94.20
2019-03-04T23:52:14.316Z,93.20
2019-03-04T23:54:43.770Z,94.30
2019-03-04T23:57:13.190Z,94.20
2019-03-04T23:59:42.709Z,94.10
